createdAt,value
2019-06-15T00:00:09.169Z,21.53
2019-06-15T00:01:09.189Z,21.44
2019-06-15T00:02:09.206Z,21.45
2019-06-15T00:03:09.190Z,21.45
2019-06-15T00:04:09.252Z,21.48
2019-06-15T00:05:09.163Z,21.47
2019-06-15T00:06:24.943Z,21.43
2019-06-15T00:07:09.158Z,21.51
2019-06-15T00:08:10.203Z,21.43
2019-06-15T00:09:09.227Z,21.47
2019-06-15T00:15:23.250Z,21.5
2019-06-15T00:15:34.364Z,21.62
2019-06-15T00:16:34.290Z,21.54
2019-06-15T00:17:34.250Z,21.53
2019-06-15T00:18:34.287Z,21.59
2019-06-15T00:19:34.261Z,21.65
2019-06-15T00:20:34.392Z,21.56
2019-06-15T00:21:34.252Z,21.63
2019-06-15T00:22:34.245Z,21.56
2019-06-15T00:23:34.310Z,21.59
2019-06-15T00:24:40.725Z,21.59
2019-06-15T00:25:34.262Z,21.56
2019-06-15T00:26:34.290Z,21.59
2019-06-15T00:27:34.299Z,21.65
2019-06-15T00:28:34.260Z,21.54
2019-06-15T00:29:34.287Z,21.6
2019-06-15T00:30:34.293Z,21.51
2019-06-15T00:31:34.288Z,21.59
2019-06-15T00:32:34.309Z,21.58
2019-06-15T00:33:34.350Z,21.6
2019-06-15T00:34:34.302Z,21.4
2019-06-15T00:35:34.358Z,21.47
2019-06-15T00:36:34.340Z,21.53
2019-06-15T00:37:34.322Z,21.32
2019-06-15T00:38:34.322Z,21.11
2019-06-15T00:39:34.313Z,21.07
2019-06-15T00:40:34.298Z,21.19
2019-06-15T00:41:34.310Z,21.3
2019-06-15T00:42:34.335Z,21.38
2019-06-15T00:43:34.339Z,21.43
2019-06-15T00:44:34.308Z,21.47
2019-06-15T00:45:34.498Z,21.32
2019-06-15T00:46:34.333Z,21.51
2019-06-15T00:47:34.343Z,21.4
2019-06-15T00:48:34.330Z,21.44
2019-06-15T00:49:34.501Z,21.47
2019-06-15T00:50:34.672Z,21.35
2019-06-15T00:51:34.297Z,21.3
2019-06-15T00:52:34.363Z,21.37
2019-06-15T00:53:34.302Z,21.44
2019-06-15T00:54:34.291Z,21.32
2019-06-15T00:55:34.422Z,21.41
2019-06-15T00:56:34.370Z,21.37
2019-06-15T01:01:03.129Z,21.41
2019-06-15T01:02:02.718Z,21.41
2019-06-15T01:03:02.697Z,21.37
2019-06-15T01:04:02.676Z,21.38
2019-06-15T01:05:02.837Z,21.43
2019-06-15T01:06:02.786Z,21.4
2019-06-15T01:07:02.694Z,21.4
2019-06-15T01:08:02.727Z,21.48
2019-06-15T01:09:02.686Z,21.48
2019-06-15T01:10:02.714Z,21.43
2019-06-15T01:11:02.660Z,21.44
2019-06-15T01:12:02.703Z,21.54
2019-06-15T01:13:02.682Z,21.44
2019-06-15T01:14:02.737Z,21.56
2019-06-15T01:15:02.685Z,21.54
2019-06-15T01:16:03.192Z,21.45
2019-06-15T01:17:02.709Z,21.54
2019-06-15T01:18:02.897Z,21.53
2019-06-15T01:19:02.897Z,21.43
2019-06-15T01:20:02.830Z,21.51
2019-06-15T01:21:02.673Z,21.51
2019-06-15T01:22:02.719Z,21.51
2019-06-15T01:23:02.686Z,21.54
2019-06-15T01:24:03.164Z,21.51
2019-06-15T01:25:11.357Z,21.45
2019-06-15T01:26:02.748Z,21.44
2019-06-15T01:27:02.768Z,21.5
2019-06-15T01:28:02.853Z,21.54
2019-06-15T01:29:02.737Z,21.37
2019-06-15T01:30:02.734Z,21.28
2019-06-15T01:31:02.765Z,21.26
2019-06-15T01:32:02.722Z,21.33
2019-06-15T01:33:02.746Z,21.4
2019-06-15T01:34:02.805Z,21.44
2019-06-15T01:35:02.737Z,21.37
2019-06-15T01:36:02.766Z,21.29
2019-06-15T01:37:02.729Z,21.14
2019-06-15T01:38:02.762Z,21.28
2019-06-15T01:39:02.786Z,21.19
2019-06-15T01:40:02.754Z,21.14
2019-06-15T01:41:02.797Z,21.23
2019-06-15T01:42:02.720Z,21.23
2019-06-15T01:43:02.855Z,21.25
2019-06-15T01:44:02.959Z,21.23
2019-06-15T01:45:02.765Z,21.29
2019-06-15T01:46:02.816Z,21.23
2019-06-15T01:47:02.782Z,20.88
2019-06-15T01:48:02.812Z,20.73
2019-06-15T01:49:02.939Z,20.64
2019-06-15T01:50:03.036Z,20.63
2019-06-15T01:51:02.795Z,20.68
2019-06-15T01:52:03.653Z,20.7
2019-06-15T01:53:02.939Z,20.7
2019-06-15T01:54:02.823Z,20.71
2019-06-15T01:55:02.809Z,20.85
2019-06-15T01:56:02.898Z,20.75
2019-06-15T01:57:02.769Z,20.74
2019-06-15T01:58:02.847Z,20.89
2019-06-15T01:59:02.757Z,20.9
2019-06-15T02:00:03.478Z,20.93
2019-06-15T02:01:02.789Z,21.07
2019-06-15T02:02:02.782Z,20.9
2019-06-15T02:03:02.832Z,20.78
2019-06-15T02:04:02.805Z,20.9
2019-06-15T02:05:02.799Z,20.93
2019-06-15T02:06:02.968Z,20.9
2019-06-15T02:07:02.861Z,20.92
2019-06-15T02:08:02.943Z,20.9
2019-06-15T02:09:02.846Z,20.98
2019-06-15T02:10:02.829Z,20.88
2019-06-15T02:11:02.853Z,20.67
2019-06-15T02:12:02.801Z,20.68
2019-06-15T02:13:02.884Z,20.6
2019-06-15T02:14:02.845Z,20.73
2019-06-15T02:15:02.958Z,20.74
2019-06-15T02:16:04.888Z,20.85
2019-06-15T02:17:03.028Z,20.92
2019-06-15T02:18:03.998Z,20.88
2019-06-15T02:19:02.800Z,20.8
2019-06-15T02:20:02.838Z,20.98
2019-06-15T02:21:02.900Z,20.75
2019-06-15T02:22:02.908Z,20.86
2019-06-15T02:23:02.828Z,20.88
2019-06-15T02:24:02.876Z,20.89
2019-06-15T02:25:03.231Z,21
2019-06-15T02:26:02.819Z,21.04
2019-06-15T02:27:02.857Z,21.03
2019-06-15T02:28:02.877Z,21.03
2019-06-15T02:29:02.837Z,20.98
2019-06-15T02:30:02.812Z,20.95
2019-06-15T02:31:02.877Z,20.9
2019-06-15T02:32:02.826Z,21.01
2019-06-15T02:33:02.825Z,20.98
2019-06-15T02:34:02.855Z,21
2019-06-15T02:35:02.886Z,20.98
2019-06-15T02:36:03.830Z,20.98
2019-06-15T02:37:04.227Z,20.95
2019-06-15T02:38:02.856Z,20.8
2019-06-15T02:39:02.847Z,20.74
2019-06-15T02:40:02.860Z,20.44
2019-06-15T02:41:02.841Z,20.52
2019-06-15T02:42:02.846Z,20.44
2019-06-15T02:43:02.876Z,20.39
2019-06-15T02:44:02.905Z,20.4
2019-06-15T02:45:02.906Z,20.46
2019-06-15T02:46:04.199Z,20.44
2019-06-15T02:47:02.912Z,20.52
2019-06-15T02:48:02.903Z,20.46
2019-06-15T02:49:02.926Z,20.53
2019-06-15T02:50:02.911Z,20.46
2019-06-15T02:51:03.416Z,20.34
2019-06-15T02:56:20.300Z,20.52
2019-06-15T02:56:31.443Z,20.63
2019-06-15T02:57:31.481Z,20.63
2019-06-15T02:58:31.307Z,20.56
2019-06-15T02:59:32.407Z,20.59
2019-06-15T03:00:31.320Z,20.6
2019-06-15T03:01:31.425Z,20.53
2019-06-15T03:02:31.356Z,20.55
2019-06-15T03:03:31.449Z,20.55
2019-06-15T03:04:31.354Z,20.24
2019-06-15T03:05:31.349Z,20.26
2019-06-15T03:06:31.304Z,20.27
2019-06-15T03:07:32.160Z,20.24
2019-06-15T03:08:31.369Z,20.4
2019-06-15T03:09:31.339Z,20.39
2019-06-15T03:10:31.370Z,20.53
2019-06-15T03:11:31.406Z,20.5
2019-06-15T03:12:31.336Z,20.53
2019-06-15T03:13:31.342Z,20.53
2019-06-15T03:14:31.374Z,20.58
2019-06-15T03:15:42.986Z,20.6
2019-06-15T03:16:31.362Z,20.58
2019-06-15T03:17:31.504Z,20.64
2019-06-15T03:18:31.401Z,20.6
2019-06-15T03:19:31.333Z,20.36
2019-06-15T03:20:31.444Z,20.36
2019-06-15T03:21:31.416Z,20.3
2019-06-15T03:22:31.357Z,20.33
2019-06-15T03:23:31.401Z,20.34
2019-06-15T03:24:31.368Z,20.39
2019-06-15T03:25:31.360Z,20.49
2019-06-15T03:26:31.557Z,20.49
2019-06-15T03:27:31.516Z,20.33
2019-06-15T03:28:31.423Z,20.48
2019-06-15T03:29:31.569Z,20.46
2019-06-15T03:30:31.632Z,20.3
2019-06-15T03:31:31.416Z,20.24
2019-06-15T03:32:31.368Z,20.29
2019-06-15T03:33:31.387Z,20.32
2019-06-15T03:34:31.382Z,20.37
2019-06-15T03:35:31.527Z,20.37
2019-06-15T03:36:31.827Z,20.24
2019-06-15T03:37:31.516Z,20.26
2019-06-15T03:38:31.401Z,20.18
2019-06-15T03:39:31.372Z,20.21
2019-06-15T03:40:31.476Z,20.27
2019-06-15T03:41:31.429Z,20.15
2019-06-15T03:42:31.490Z,20.1
2019-06-15T03:43:31.413Z,20.03
2019-06-15T03:44:31.422Z,19.94
2019-06-15T03:45:31.388Z,19.99
2019-06-15T03:46:31.419Z,20.07
2019-06-15T03:47:31.469Z,20.15
2019-06-15T03:48:31.584Z,20.21
2019-06-15T03:49:31.456Z,20.21
2019-06-15T03:50:31.539Z,20.26
2019-06-15T03:51:31.469Z,20.21
2019-06-15T03:52:31.466Z,20.12
2019-06-15T03:53:31.440Z,20.08
2019-06-15T03:54:31.367Z,19.96
2019-06-15T03:55:31.507Z,19.96
2019-06-15T03:56:31.451Z,20
2019-06-15T03:57:31.532Z,20.11
2019-06-15T03:58:31.437Z,20.17
2019-06-15T03:59:31.830Z,20.15
2019-06-15T04:00:31.414Z,20.24
2019-06-15T04:01:31.508Z,20.24
2019-06-15T04:02:31.518Z,20.22
2019-06-15T04:03:31.467Z,20.17
2019-06-15T04:04:31.516Z,20.12
2019-06-15T04:05:31.492Z,20.14
2019-06-15T04:06:31.439Z,20.1
2019-06-15T04:07:31.540Z,20.15
2019-06-15T04:08:31.490Z,20.15
2019-06-15T04:09:31.389Z,20.26
2019-06-15T04:10:31.456Z,20.36
2019-06-15T04:11:31.418Z,20.42
2019-06-15T04:12:31.466Z,20.49
2019-06-15T04:13:31.480Z,20.42
2019-06-15T04:14:31.492Z,20.17
2019-06-15T04:15:31.434Z,20.24
2019-06-15T04:16:31.441Z,20.27
2019-06-15T04:17:31.558Z,20.3
2019-06-15T04:18:31.425Z,20.32
2019-06-15T04:19:31.554Z,20.34
2019-06-15T04:20:31.482Z,20.29
2019-06-15T04:21:31.422Z,20.34
2019-06-15T04:22:31.461Z,20.22
2019-06-15T04:23:31.474Z,20.37
2019-06-15T04:24:31.420Z,20.34
2019-06-15T04:25:32.224Z,20.5
2019-06-15T04:26:41.128Z,20.55
2019-06-15T04:27:31.521Z,20.52
2019-06-15T04:28:31.474Z,20.44
2019-06-15T04:29:31.622Z,20.42
2019-06-15T04:30:31.516Z,20.64
2019-06-15T04:31:31.552Z,20.66
2019-06-15T04:32:31.455Z,20.58
2019-06-15T04:33:31.459Z,20.73
2019-06-15T04:34:31.900Z,20.66
2019-06-15T04:35:31.475Z,20.68
2019-06-15T04:36:31.500Z,20.7
2019-06-15T04:37:31.630Z,20.83
2019-06-15T04:38:31.475Z,20.82
2019-06-15T04:39:31.480Z,20.78
2019-06-15T04:40:31.447Z,20.7
2019-06-15T04:41:31.521Z,20.67
2019-06-15T04:42:31.567Z,20.78
2019-06-15T04:43:31.509Z,20.83
2019-06-15T04:44:31.538Z,20.82
2019-06-15T04:45:31.500Z,20.8
2019-06-15T04:46:34.715Z,20.85
2019-06-15T04:47:32.109Z,20.73
2019-06-15T04:48:31.503Z,20.82
2019-06-15T04:49:31.467Z,20.78
2019-06-15T04:50:31.679Z,20.8
2019-06-15T04:51:31.503Z,20.96
2019-06-15T04:52:31.533Z,20.64
2019-06-15T04:53:31.532Z,20.68
2019-06-15T04:54:31.503Z,20.82
2019-06-15T04:55:31.553Z,20.88
2019-06-15T04:56:31.495Z,20.89
2019-06-15T04:57:31.996Z,20.89
2019-06-15T04:58:31.670Z,20.82
2019-06-15T04:59:31.576Z,20.7
2019-06-15T05:00:31.519Z,20.83
2019-06-15T05:01:31.503Z,20.78
2019-06-15T05:02:32.776Z,20.96
2019-06-15T05:03:31.604Z,20.98
2019-06-15T05:04:31.483Z,20.93
2019-06-15T05:05:31.497Z,21.1
2019-06-15T05:06:31.870Z,21.1
2019-06-15T05:07:31.571Z,21.1
2019-06-15T05:08:31.511Z,21.25
2019-06-15T05:09:31.524Z,21.29
2019-06-15T05:10:31.566Z,21.28
2019-06-15T05:11:31.592Z,21.41
2019-06-15T05:12:31.596Z,21.45
2019-06-15T05:13:31.535Z,21.56
2019-06-15T05:14:31.556Z,21.45
2019-06-15T05:15:31.569Z,21.54
2019-06-15T05:16:31.606Z,21.56
2019-06-15T05:17:31.565Z,21.62
2019-06-15T05:18:31.550Z,21.44
2019-06-15T05:19:32.315Z,21.54
2019-06-15T05:20:31.858Z,21.41
2019-06-15T05:21:31.642Z,21.51
2019-06-15T05:22:31.707Z,21.5
2019-06-15T05:23:31.571Z,21.69
2019-06-15T05:24:31.581Z,21.84
2019-06-15T05:25:31.576Z,21.8
2019-06-15T05:26:31.587Z,21.96
2019-06-15T05:27:31.575Z,21.94
2019-06-15T05:28:31.596Z,22.04
2019-06-15T05:29:31.627Z,21.92
2019-06-15T05:30:32.062Z,22.06
2019-06-15T05:31:31.593Z,22.22
2019-06-15T05:32:31.568Z,22.22
2019-06-15T05:33:31.571Z,22.23
2019-06-15T05:34:31.616Z,22.38
2019-06-15T05:35:31.566Z,22.37
2019-06-15T05:36:31.614Z,22.47
2019-06-15T05:37:31.630Z,22.47
2019-06-15T05:38:31.630Z,22.52
2019-06-15T05:39:31.592Z,22.55
2019-06-15T05:40:31.710Z,22.51
2019-06-15T05:41:31.602Z,22.59
2019-06-15T05:42:31.638Z,22.68
2019-06-15T05:43:31.676Z,22.7
2019-06-15T05:44:31.586Z,22.63
2019-06-15T05:45:31.606Z,22.77
2019-06-15T05:46:31.613Z,22.89
2019-06-15T05:47:31.593Z,23.06
2019-06-15T05:48:31.793Z,23.01
2019-06-15T05:49:31.670Z,23.07
2019-06-15T05:50:31.674Z,23.06
2019-06-15T05:51:31.641Z,23.07
2019-06-15T05:52:31.666Z,23.1
2019-06-15T05:53:31.629Z,23.34
2019-06-15T05:54:31.616Z,23.34
2019-06-15T05:55:31.703Z,23.34
2019-06-15T05:56:33.445Z,23.37
2019-06-15T05:57:31.603Z,23.47
2019-06-15T05:58:31.659Z,23.47
2019-06-15T05:59:31.605Z,23.51
2019-06-15T06:00:31.707Z,23.64
2019-06-15T06:01:31.680Z,23.64
2019-06-15T06:02:31.649Z,23.73
2019-06-15T06:03:31.653Z,23.82
2019-06-15T06:04:31.605Z,23.77
2019-06-15T06:05:31.995Z,23.82
2019-06-15T06:06:31.610Z,23.91
2019-06-15T06:07:31.657Z,23.95
2019-06-15T06:08:31.640Z,23.92
2019-06-15T06:09:31.678Z,23.99
2019-06-15T06:10:31.670Z,24.09
2019-06-15T06:11:31.647Z,24.13
2019-06-15T06:12:31.746Z,24.06
2019-06-15T06:13:31.691Z,24.13
2019-06-15T06:14:31.771Z,24.18
2019-06-15T06:15:32.245Z,24.32
2019-06-15T06:16:32.214Z,24.19
2019-06-15T06:17:32.607Z,24.4
2019-06-15T06:18:31.642Z,24.28
2019-06-15T06:19:31.855Z,24.28
2019-06-15T06:20:31.779Z,24.44
2019-06-15T06:21:31.622Z,24.55
2019-06-15T06:22:31.661Z,24.56
2019-06-15T06:23:31.667Z,24.59
2019-06-15T06:24:31.746Z,24.53
2019-06-15T06:25:31.714Z,24.78
2019-06-15T06:26:31.660Z,24.84
2019-06-15T06:27:41.682Z,24.94
2019-06-15T06:28:31.654Z,24.84
2019-06-15T06:29:31.656Z,24.75
2019-06-15T06:30:35.461Z,24.94
2019-06-15T06:31:31.813Z,24.97
2019-06-15T06:32:31.718Z,25.09
2019-06-15T06:33:31.681Z,25.29
2019-06-15T06:34:31.676Z,25.33
2019-06-15T06:35:31.761Z,25.25
2019-06-15T06:36:31.701Z,25.15
2019-06-15T06:37:31.778Z,25.52
2019-06-15T06:38:31.653Z,25.43
2019-06-15T06:39:31.800Z,25.43
2019-06-15T06:40:31.651Z,25.67
2019-06-15T06:41:31.653Z,25.71
2019-06-15T06:42:31.690Z,25.85
2019-06-15T06:43:31.748Z,25.91
2019-06-15T06:44:31.685Z,26.11
2019-06-15T06:45:31.861Z,26.22
2019-06-15T06:46:31.762Z,26.24
2019-06-15T06:47:31.745Z,26.18
2019-06-15T06:48:31.734Z,26.52
2019-06-15T06:49:31.780Z,26.68
2019-06-15T06:50:33.019Z,26.76
2019-06-15T06:51:32.389Z,26.55
2019-06-15T06:52:37.562Z,26.64
2019-06-15T06:53:31.703Z,26.49
2019-06-15T06:54:31.818Z,26.53
2019-06-15T06:55:32.463Z,25.98
2019-06-15T06:56:31.686Z,26.22
2019-06-15T06:57:32.271Z,26.36
2019-06-15T06:58:31.817Z,26.29
2019-06-15T06:59:31.745Z,26.98
2019-06-15T07:00:33.727Z,26.83
2019-06-15T07:01:31.822Z,26.56
2019-06-15T07:02:31.721Z,26.59
2019-06-15T07:03:31.766Z,26.96
2019-06-15T07:04:33.269Z,26.86
2019-06-15T07:05:31.803Z,26.98
2019-06-15T07:06:31.766Z,27.04
2019-06-15T07:07:31.719Z,26.7
2019-06-15T07:08:31.731Z,26.73
2019-06-15T07:09:31.816Z,26.76
2019-06-15T07:10:31.752Z,26.85
2019-06-15T07:11:31.761Z,26.83
2019-06-15T07:12:31.928Z,27.37
2019-06-15T07:13:33.492Z,27.07
2019-06-15T07:14:31.772Z,27.04
2019-06-15T07:15:31.777Z,27.47
2019-06-15T07:16:31.896Z,27.45
2019-06-15T07:17:31.776Z,27.1
2019-06-15T07:18:31.762Z,27.03
2019-06-15T07:19:31.756Z,27.45
2019-06-15T07:20:31.900Z,26.92
2019-06-15T07:21:31.809Z,27.35
2019-06-15T07:22:31.752Z,27.67
2019-06-15T07:23:34.958Z,27.26
2019-06-15T07:24:31.925Z,27.55
2019-06-15T07:25:31.787Z,27.18
2019-06-15T07:26:31.769Z,27.58
2019-06-15T07:27:31.847Z,26.89
2019-06-15T07:28:31.871Z,27.18
2019-06-15T07:29:31.814Z,27.23
2019-06-15T07:30:31.798Z,27.4
2019-06-15T07:31:32.849Z,27.5
2019-06-15T07:32:31.937Z,27.75
2019-06-15T07:33:31.786Z,27.3
2019-06-15T07:34:31.792Z,27.63
2019-06-15T07:35:31.911Z,28.01
2019-06-15T07:36:31.812Z,27.79
2019-06-15T07:37:31.806Z,27.9
2019-06-15T07:38:31.781Z,27.22
2019-06-15T07:39:31.840Z,27.05
2019-06-15T07:40:31.819Z,27.41
2019-06-15T07:41:31.871Z,27.53
2019-06-15T07:42:31.762Z,27.55
2019-06-15T07:43:31.830Z,27.19
2019-06-15T07:44:31.897Z,27.73
2019-06-15T07:45:31.803Z,27.61
2019-06-15T07:46:31.800Z,27.63
2019-06-15T07:47:31.888Z,28.16
2019-06-15T07:48:31.856Z,27.29
2019-06-15T07:49:31.805Z,27.38
2019-06-15T07:50:31.873Z,26.88
2019-06-15T07:51:31.810Z,26.78
2019-06-15T07:52:31.838Z,27.3
2019-06-15T07:53:31.828Z,27.34
2019-06-15T07:54:31.830Z,27.01
2019-06-15T07:55:31.840Z,27.05
2019-06-15T07:56:32.137Z,26.78
2019-06-15T07:57:31.875Z,27.2
2019-06-15T07:58:31.840Z,27.3
2019-06-15T07:59:31.922Z,27.22
2019-06-15T08:00:31.914Z,27.41
2019-06-15T08:01:31.842Z,27.2
2019-06-15T08:06:49.256Z,27.94
2019-06-15T08:07:00.218Z,27.78
2019-06-15T08:08:00.260Z,27.91
2019-06-15T08:13:17.437Z,27.86
2019-06-15T08:13:39.268Z,28.15
2019-06-15T08:14:38.989Z,28.13
2019-06-15T08:15:39.203Z,27.94
2019-06-15T08:16:38.990Z,28
2019-06-15T08:17:38.955Z,27.82
2019-06-15T08:18:38.963Z,27.28
2019-06-15T08:19:38.993Z,27.1
2019-06-15T08:20:38.999Z,27.28
2019-06-15T08:21:38.985Z,27.13
2019-06-15T08:22:38.974Z,27.37
2019-06-15T08:23:39.057Z,26.97
2019-06-15T08:24:38.969Z,27.22
2019-06-15T08:25:38.975Z,27.52
2019-06-15T08:26:38.999Z,26.89
2019-06-15T08:27:39.097Z,27.29
2019-06-15T08:28:45.592Z,27.63
2019-06-15T08:29:39.018Z,27.75
2019-06-15T08:30:39.382Z,27.57
2019-06-15T08:31:39.008Z,27.1
2019-06-15T08:32:39.080Z,27.71
2019-06-15T08:33:39.001Z,27.75
2019-06-15T08:34:39.009Z,27.5
2019-06-15T08:35:38.992Z,27.58
2019-06-15T08:36:39.005Z,27.93
2019-06-15T08:37:39.015Z,27.66
2019-06-15T08:38:39.093Z,27.61
2019-06-15T08:39:39.597Z,27.98
2019-06-15T08:40:39.047Z,28.23
2019-06-15T08:41:39.034Z,27.97
2019-06-15T08:42:39.057Z,27.15
2019-06-15T08:43:39.029Z,27.53
2019-06-15T08:44:39.030Z,27.28
2019-06-15T08:45:39.105Z,27.6
2019-06-15T08:46:39.354Z,27.34
2019-06-15T08:47:39.017Z,27.66
2019-06-15T08:48:39.969Z,27.53
2019-06-15T08:49:39.047Z,27.66
2019-06-15T08:50:39.075Z,27.18
2019-06-15T08:51:39.064Z,27.78
2019-06-15T08:52:39.031Z,27.83
2019-06-15T08:53:39.071Z,27.76
2019-06-15T08:54:39.087Z,27.5
2019-06-15T08:55:39.063Z,27.82
2019-06-15T08:56:39.076Z,27.15
2019-06-15T08:57:40.468Z,27.2
2019-06-15T08:58:39.169Z,27.44
2019-06-15T08:59:39.218Z,27.34
2019-06-15T09:00:39.362Z,27.88
2019-06-15T09:01:39.073Z,27.47
2019-06-15T09:02:39.038Z,27.94
2019-06-15T09:03:39.081Z,27.9
2019-06-15T09:04:39.062Z,28.4
2019-06-15T09:05:39.063Z,27.98
2019-06-15T09:06:39.086Z,28.49
2019-06-15T09:07:39.086Z,28.27
2019-06-15T09:08:39.095Z,28.62
2019-06-15T09:09:39.121Z,28.52
2019-06-15T09:10:39.169Z,28.3
2019-06-15T09:11:39.074Z,28.6
2019-06-15T09:12:39.122Z,28.8
2019-06-15T09:13:39.082Z,28.62
2019-06-15T09:14:39.114Z,28.72
2019-06-15T09:15:39.112Z,29.02
2019-06-15T09:16:39.085Z,29.3
2019-06-15T09:17:40.070Z,29.35
2019-06-15T09:18:39.092Z,29.37
2019-06-15T09:19:39.101Z,29.37
2019-06-15T09:20:39.149Z,28.3
2019-06-15T09:21:39.092Z,28.94
2019-06-15T09:22:39.126Z,28.77
2019-06-15T09:23:39.089Z,28.59
2019-06-15T09:24:39.116Z,28.77
2019-06-15T09:25:42.037Z,28.77
2019-06-15T09:26:39.105Z,28.53
2019-06-15T09:27:39.098Z,28.87
2019-06-15T09:28:39.125Z,29.07
2019-06-15T09:29:39.108Z,28.6
2019-06-15T09:30:39.136Z,28.43
2019-06-15T09:31:39.250Z,28.82
2019-06-15T09:32:39.191Z,29.18
2019-06-15T09:33:39.131Z,28.7
2019-06-15T09:34:39.186Z,28.93
2019-06-15T09:35:39.175Z,28.6
2019-06-15T09:36:39.133Z,28.75
2019-06-15T09:37:39.128Z,28.86
2019-06-15T09:38:39.151Z,29.49
2019-06-15T09:39:39.214Z,29.25
2019-06-15T09:40:39.215Z,29
2019-06-15T09:41:40.437Z,29.35
2019-06-15T09:42:39.236Z,29.12
2019-06-15T09:43:39.166Z,29.4
2019-06-15T09:44:39.283Z,29.57
2019-06-15T09:45:40.427Z,29.73
2019-06-15T09:46:40.464Z,29.55
2019-06-15T09:47:39.329Z,29.37
2019-06-15T09:48:39.394Z,29.2
2019-06-15T09:49:39.222Z,29.34
2019-06-15T09:50:39.253Z,29.21
2019-06-15T09:51:39.456Z,28.74
2019-06-15T09:52:39.563Z,29.28
2019-06-15T09:53:39.368Z,28.52
2019-06-15T09:54:39.191Z,28.38
2019-06-15T09:55:39.164Z,28.89
2019-06-15T09:56:39.165Z,28.97
2019-06-15T09:57:39.238Z,29.2
2019-06-15T09:58:39.196Z,28.04
2019-06-15T09:59:41.104Z,28.68
2019-06-15T10:00:39.234Z,29.03
2019-06-15T10:01:39.467Z,29.28
2019-06-15T10:02:39.210Z,29.02
2019-06-15T10:03:39.189Z,29.37
2019-06-15T10:04:39.197Z,29.09
2019-06-15T10:05:39.183Z,29.12
2019-06-15T10:06:39.350Z,28.56
2019-06-15T10:07:39.211Z,28.37
2019-06-15T10:08:39.428Z,28.72
2019-06-15T10:09:39.205Z,28.97
2019-06-15T10:10:39.169Z,29.06
2019-06-15T10:11:39.236Z,29.27
2019-06-15T10:12:39.228Z,29.44
2019-06-15T10:13:39.190Z,29.59
2019-06-15T10:14:39.197Z,29.05
2019-06-15T10:15:39.204Z,28.27
2019-06-15T10:16:39.263Z,28.9
2019-06-15T10:17:41.094Z,28.72
2019-06-15T10:18:41.586Z,28.84
2019-06-15T10:19:39.256Z,28.4
2019-06-15T10:20:39.365Z,28.67
2019-06-15T10:21:39.817Z,28.72
2019-06-15T10:22:39.953Z,28.12
2019-06-15T10:23:40.302Z,28.57
2019-06-15T10:24:39.908Z,28.52
2019-06-15T10:25:39.277Z,28.2
2019-06-15T10:26:39.350Z,28.46
2019-06-15T10:27:39.841Z,28.4
2019-06-15T10:28:39.782Z,27.98
2019-06-15T10:29:47.340Z,28.27
2019-06-15T10:30:39.904Z,28.46
2019-06-15T10:31:41.254Z,28.2
2019-06-15T10:32:39.216Z,28.43
2019-06-15T10:33:39.352Z,27.82
2019-06-15T10:34:39.845Z,28.25
2019-06-15T10:35:39.275Z,28
2019-06-15T10:36:40.286Z,28.6
2019-06-15T10:37:39.226Z,28.5
2019-06-15T10:38:40.201Z,28.38
2019-06-15T10:39:39.307Z,28.67
2019-06-15T10:40:39.621Z,28.18
2019-06-15T10:41:39.889Z,28.2
2019-06-15T10:42:39.963Z,28
2019-06-15T10:43:39.349Z,28.3
2019-06-15T10:44:39.260Z,27.73
2019-06-15T10:45:39.878Z,27.97
2019-06-15T10:46:39.563Z,27.86
2019-06-15T10:47:39.414Z,28.13
2019-06-15T10:48:39.275Z,28.55
2019-06-15T10:49:39.262Z,28.68
2019-06-15T10:50:39.269Z,28.3
2019-06-15T10:51:39.259Z,28.23
2019-06-15T10:52:39.317Z,27.88
2019-06-15T10:53:39.377Z,27.78
2019-06-15T10:54:39.308Z,27.48
2019-06-15T10:55:39.255Z,27.44
2019-06-15T10:56:39.323Z,28
2019-06-15T10:57:39.309Z,28.13
2019-06-15T10:58:39.302Z,28.18
2019-06-15T10:59:39.288Z,28.31
2019-06-15T11:00:39.636Z,27.98
2019-06-15T11:01:39.332Z,27.93
2019-06-15T11:02:39.373Z,27.71
2019-06-15T11:03:39.349Z,28.13
2019-06-15T11:04:39.317Z,28.37
2019-06-15T11:05:39.352Z,28.37
2019-06-15T11:06:39.927Z,28.5
2019-06-15T11:07:39.383Z,28.57
2019-06-15T11:08:39.306Z,28.7
2019-06-15T11:09:39.329Z,28.75
2019-06-15T11:10:39.324Z,28.19
2019-06-15T11:11:39.382Z,27.95
2019-06-15T11:12:51.799Z,28.27
2019-06-15T11:13:39.496Z,27.34
2019-06-15T11:14:39.432Z,27.72
2019-06-15T11:15:41.011Z,27.86
2019-06-15T11:16:40.543Z,27.72
2019-06-15T11:17:39.973Z,27.82
2019-06-15T11:18:40.150Z,27.91
2019-06-15T11:19:39.296Z,28.33
2019-06-15T11:20:39.364Z,28.41
2019-06-15T11:21:39.501Z,28.53
2019-06-15T11:22:39.339Z,28.15
2019-06-15T11:23:39.337Z,27.82
2019-06-15T11:24:39.531Z,28.1
2019-06-15T11:25:39.461Z,27.95
2019-06-15T11:26:41.912Z,27.76
2019-06-15T11:27:39.476Z,27.79
2019-06-15T11:28:39.421Z,27.91
2019-06-15T11:29:39.481Z,27.83
2019-06-15T11:30:39.363Z,27.4
2019-06-15T11:31:39.600Z,27.22
2019-06-15T11:32:39.338Z,27.26
2019-06-15T11:33:39.382Z,26.96
2019-06-15T11:34:42.932Z,27.35
2019-06-15T11:35:39.406Z,27.2
2019-06-15T11:36:39.367Z,27.52
2019-06-15T11:37:39.412Z,26.96
2019-06-15T11:38:39.687Z,26.63
2019-06-15T11:39:39.472Z,26.92
2019-06-15T11:40:39.492Z,27.18
2019-06-15T11:41:39.379Z,27.15
2019-06-15T11:42:40.093Z,26.93
2019-06-15T11:43:39.391Z,27.08
2019-06-15T11:44:39.381Z,27.18
2019-06-15T11:45:39.462Z,27.05
2019-06-15T11:46:44.045Z,27.04
2019-06-15T11:47:39.376Z,26.86
2019-06-15T11:48:39.578Z,26.64
2019-06-15T11:49:39.397Z,26.48
2019-06-15T11:50:39.345Z,26.37
2019-06-15T11:51:39.396Z,26.15
2019-06-15T11:52:39.603Z,25.98
2019-06-15T11:53:39.461Z,25.99
2019-06-15T11:54:39.458Z,26.29
2019-06-15T11:55:44.722Z,26.3
2019-06-15T11:56:39.549Z,26.26
2019-06-15T11:57:39.415Z,26.44
2019-06-15T11:58:39.380Z,26.33
2019-06-15T11:59:39.507Z,26.71
2019-06-15T12:00:39.500Z,26.64
2019-06-15T12:01:39.508Z,26.33
2019-06-15T12:02:39.398Z,26.44
2019-06-15T12:03:39.686Z,26.64
2019-06-15T12:04:39.402Z,26.71
2019-06-15T12:05:39.448Z,26.85
2019-06-15T12:06:39.508Z,26.79
2019-06-15T12:07:39.726Z,26.89
2019-06-15T12:08:39.481Z,26.86
2019-06-15T12:09:39.425Z,27.07
2019-06-15T12:10:39.387Z,26.92
2019-06-15T12:15:56.524Z,26.56
2019-06-15T12:16:07.708Z,26.82
2019-06-15T12:17:08.032Z,26.64
2019-06-15T12:18:07.582Z,26.76
2019-06-15T12:19:07.723Z,26.56
2019-06-15T12:20:07.723Z,26.59
2019-06-15T12:21:23.535Z,26.53
2019-06-15T12:22:23.542Z,26.76
2019-06-15T12:23:23.514Z,26.86
2019-06-15T12:24:23.670Z,26.68
2019-06-15T12:25:23.486Z,26.71
2019-06-15T12:26:23.555Z,26.13
2019-06-15T12:27:23.476Z,26.42
2019-06-15T12:28:23.575Z,26.41
2019-06-15T12:29:23.513Z,26.67
2019-06-15T12:30:24.338Z,26.81
2019-06-15T12:31:24.791Z,26.53
2019-06-15T12:32:23.547Z,26.24
2019-06-15T12:33:23.565Z,26.08
2019-06-15T12:34:27.287Z,26.37
2019-06-15T12:35:23.573Z,26.48
2019-06-15T12:36:24.889Z,26.37
2019-06-15T12:37:23.565Z,26.15
2019-06-15T12:38:23.549Z,26.03
2019-06-15T12:39:25.580Z,26.23
2019-06-15T12:40:23.641Z,26.34
2019-06-15T12:41:23.552Z,26.44
2019-06-15T12:42:23.572Z,26.34
2019-06-15T12:43:23.743Z,26.23
2019-06-15T12:44:23.557Z,26.19
2019-06-15T12:45:23.700Z,26.26
2019-06-15T12:46:23.848Z,26.48
2019-06-15T12:47:23.590Z,26.55
2019-06-15T12:48:23.621Z,26.71
2019-06-15T12:49:23.579Z,26.81
2019-06-15T12:50:23.567Z,26.83
2019-06-15T12:51:23.514Z,26.93
2019-06-15T12:52:23.519Z,26.73
2019-06-15T12:53:23.546Z,26.63
2019-06-15T12:54:23.579Z,26.76
2019-06-15T12:55:23.601Z,26.81
2019-06-15T12:56:23.573Z,26.76
2019-06-15T12:57:23.944Z,26.81
2019-06-15T12:58:23.683Z,26.81
2019-06-15T12:59:23.628Z,26.48
2019-06-15T13:00:23.613Z,26.26
2019-06-15T13:01:23.637Z,26.41
2019-06-15T13:02:23.541Z,26.66
2019-06-15T13:03:23.678Z,26.68
2019-06-15T13:04:23.666Z,26.7
2019-06-15T13:05:23.589Z,26.86
2019-06-15T13:06:23.552Z,26.78
2019-06-15T13:07:23.602Z,26.76
2019-06-15T13:08:23.745Z,26.98
2019-06-15T13:09:23.592Z,27.19
2019-06-15T13:10:23.600Z,27.34
2019-06-15T13:11:23.565Z,26.96
2019-06-15T13:12:23.604Z,26.88
2019-06-15T13:13:23.637Z,27.04
2019-06-15T13:14:23.578Z,26.52
2019-06-15T13:15:23.655Z,26.91
2019-06-15T13:16:36.058Z,26.86
2019-06-15T13:17:23.604Z,26.97
2019-06-15T13:18:23.782Z,26.86